sensor_id;sensor_type;location;lat;lon;timestamp;temperature;humidity
6724;DHT22;3399;52.530;13.304;2023-08-30T00:02:23;15.10;99.90
6724;DHT22;3399;52.530;13.304;2023-08-30T00:04:49;15.00;99.90
6724;DHT22;3399;52.530;13.304;2023-08-30T00:07:14;15.00;99.90
6724;DHT22;3399;52.530;13.304;2023-08-30T00:09:40;15.10;99.90
6724;DHT22;3399;52.530;13.304;2023-08-30T00:12:05;14.90;99.90
6724;DHT22;3399;52.530;13.304;2023-08-30T00:14:31;14.80;99.90
6724;DHT22;3399;52.530;13.304;2023-08-30T00:16:57;14.80;99.90
6724;DHT22;3399;52.530;13.304;2023-08-30T00:19:23;14.70;99.90
6724;DHT22;3399;52.530;13.304;2023-08-30T00:21:48;14.70;99.90
6724;DHT22;3399;52.530;13.304;2023-08-30T00:24:14;14.70;99.90
6724;DHT22;3399;52.530;13.304;2023-08-30T00:26:39;14.80;99.90
6724;DHT22;3399;52.530;13.304;2023-08-30T00:29:05;15.00;99.90
6724;DHT22;3399;52.530;13.304;2023-08-30T00:31:30;15.10;99.90
6724;DHT22;3399;52.530;13.304;2023-08-30T00:33:56;15.00;99.90
6724;DHT22;3399;52.530;13.304;2023-08-30T00:36:21;15.10;99.90
6724;DHT22;3399;52.530;13.304;2023-08-30T00:38:47;15.10;99.90
6724;DHT22;3399;52.530;13.304;2023-08-30T00:41:12;14.90;99.90
6724;DHT22;3399;52.530;13.304;2023-08-30T00:43:39;14.90;99.90
6724;DHT22;3399;52.530;13.304;2023-08-30T00:46:04;14.80;99.90
6724;DHT22;3399;52.530;13.304;2023-08-30T00:48:30;14.80;99.90
6724;DHT22;3399;52.530;13.304;2023-08-30T00:50:55;14.90;99.90
6724;DHT22;3399;52.530;13.304;2023-08-30T00:53:21;14.90;99.90
6724;DHT22;3399;52.530;13.304;2023-08-30T00:55:47;15.00;99.90
6724;DHT22;3399;52.530;13.304;2023-08-30T00:58:13;15.00;99.90
6724;DHT22;3399;52.530;13.304;2023-08-30T01:00:39;14.90;99.90
6724;DHT22;3399;52.530;13.304;2023-08-30T01:03:06;14.90;99.90
6724;DHT22;3399;52.530;13.304;2023-08-30T01:05:32;14.90;99.90
6724;DHT22;3399;52.530;13.304;2023-08-30T01:07:58;15.00;99.90
6724;DHT22;3399;52.530;13.304;2023-08-30T01:13:44;14.90;99.90
6724;DHT22;3399;52.530;13.304;2023-08-30T01:16:11;14.70;99.90
6724;DHT22;3399;52.530;13.304;2023-08-30T01:18:39;14.70;99.90
6724;DHT22;3399;52.530;13.304;2023-08-30T01:21:19;14.60;99.90
6724;DHT22;3399;52.530;13.304;2023-08-30T01:23:59;14.70;99.90
6724;DHT22;3399;52.530;13.304;2023-08-30T01:29:16;14.60;99.90
6724;DHT22;3399;52.530;13.304;2023-08-30T01:31:44;14.50;99.90
6724;DHT22;3399;52.530;13.304;2023-08-30T01:34:10;14.40;99.90
6724;DHT22;3399;52.530;13.304;2023-08-30T01:36:38;14.50;99.90
6724;DHT22;3399;52.530;13.304;2023-08-30T01:39:04;14.50;99.90
6724;DHT22;3399;52.530;13.304;2023-08-30T01:41:31;14.40;99.90
6724;DHT22;3399;52.530;13.304;2023-08-30T01:43:57;14.50;99.90
6724;DHT22;3399;52.530;13.304;2023-08-30T01:46:24;14.50;99.90
6724;DHT22;3399;52.530;13.304;2023-08-30T01:48:50;14.50;99.90
6724;DHT22;3399;52.530;13.304;2023-08-30T01:51:16;14.50;99.90
6724;DHT22;3399;52.530;13.304;2023-08-30T01:53:44;14.50;99.90
6724;DHT22;3399;52.530;13.304;2023-08-30T01:56:10;14.60;99.90
6724;DHT22;3399;52.530;13.304;2023-08-30T01:58:36;14.60;99.90
6724;DHT22;3399;52.530;13.304;2023-08-30T02:01:01;14.60;99.90
6724;DHT22;3399;52.530;13.304;2023-08-30T02:03:27;14.60;99.90
6724;DHT22;3399;52.530;13.304;2023-08-30T02:06:09;14.50;99.90
6724;DHT22;3399;52.530;13.304;2023-08-30T02:08:55;14.60;99.90
6724;DHT22;3399;52.530;13.304;2023-08-30T02:11:26;14.60;99.90
6724;DHT22;3399;52.530;13.304;2023-08-30T02:13:56;14.50;99.90
6724;DHT22;3399;52.530;13.304;2023-08-30T02:16:22;14.50;99.90
6724;DHT22;3399;52.530;13.304;2023-08-30T02:18:49;14.40;99.90
6724;DHT22;3399;52.530;13.304;2023-08-30T02:21:15;14.40;99.90
6724;DHT22;3399;52.530;13.304;2023-08-30T02:23:41;14.50;99.90
6724;DHT22;3399;52.530;13.304;2023-08-30T02:26:06;14.40;99.90
6724;DHT22;3399;52.530;13.304;2023-08-30T02:28:32;14.30;99.90
6724;DHT22;3399;52.530;13.304;2023-08-30T02:30:57;14.30;99.90
6724;DHT22;3399;52.530;13.304;2023-08-30T02:33:23;14.30;99.90
6724;DHT22;3399;52.530;13.304;2023-08-30T02:35:48;14.30;99.90
6724;DHT22;3399;52.530;13.304;2023-08-30T02:38:14;14.40;99.90
6724;DHT22;3399;52.530;13.304;2023-08-30T02:40:39;14.50;99.90
6724;DHT22;3399;52.530;13.304;2023-08-30T02:43:04;14.60;99.90
6724;DHT22;3399;52.530;13.304;2023-08-30T02:45:30;14.50;99.90
6724;DHT22;3399;52.530;13.304;2023-08-30T02:47:56;14.60;99.90
6724;DHT22;3399;52.530;13.304;2023-08-30T02:50:24;14.60;99.90
6724;DHT22;3399;52.530;13.304;2023-08-30T02:52:50;14.30;99.90
6724;DHT22;3399;52.530;13.304;2023-08-30T02:55:16;14.20;99.90
6724;DHT22;3399;52.530;13.304;2023-08-30T02:57:42;14.20;99.90
6724;DHT22;3399;52.530;13.304;2023-08-30T03:00:08;14.20;99.90
6724;DHT22;3399;52.530;13.304;2023-08-30T03:02:34;14.30;99.90
6724;DHT22;3399;52.530;13.304;2023-08-30T03:05:00;14.30;99.90
6724;DHT22;3399;52.530;13.304;2023-08-30T03:07:28;14.40;99.90
6724;DHT22;3399;52.530;13.304;2023-08-30T03:09:53;14.50;99.90
6724;DHT22;3399;52.530;13.304;2023-08-30T03:12:19;14.50;99.90
6724;DHT22;3399;52.530;13.304;2023-08-30T03:14:44;14.50;99.90
6724;DHT22;3399;52.530;13.304;2023-08-30T03:17:10;14.40;99.90
6724;DHT22;3399;52.530;13.304;2023-08-30T03:19:36;14.20;99.90
6724;DHT22;3399;52.530;13.304;2023-08-30T03:22:01;14.20;99.90
6724;DHT22;3399;52.530;13.304;2023-08-30T03:24:27;14.20;99.90
6724;DHT22;3399;52.530;13.304;2023-08-30T03:26:52;14.30;99.90
6724;DHT22;3399;52.530;13.304;2023-08-30T03:29:18;14.40;99.90
6724;DHT22;3399;52.530;13.304;2023-08-30T03:31:43;14.40;99.90
6724;DHT22;3399;52.530;13.304;2023-08-30T03:34:09;14.50;99.90
6724;DHT22;3399;52.530;13.304;2023-08-30T03:36:34;14.40;99.90
6724;DHT22;3399;52.530;13.304;2023-08-30T03:39:00;14.30;99.90
6724;DHT22;3399;52.530;13.304;2023-08-30T03:41:26;14.30;99.90
6724;DHT22;3399;52.530;13.304;2023-08-30T03:43:51;14.10;99.90
6724;DHT22;3399;52.530;13.304;2023-08-30T03:46:17;14.20;99.90
6724;DHT22;3399;52.530;13.304;2023-08-30T03:48:43;14.00;99.90
6724;DHT22;3399;52.530;13.304;2023-08-30T03:51:08;13.90;99.90
6724;DHT22;3399;52.530;13.304;2023-08-30T03:53:34;14.00;99.90
6724;DHT22;3399;52.530;13.304;2023-08-30T03:55:59;14.00;99.90
6724;DHT22;3399;52.530;13.304;2023-08-30T03:58:25;14.00;99.90
6724;DHT22;3399;52.530;13.304;2023-08-30T04:00:50;14.00;99.90
6724;DHT22;3399;52.530;13.304;2023-08-30T04:03:16;14.00;99.90
6724;DHT22;3399;52.530;13.304;2023-08-30T04:05:42;14.00;99.90
6724;DHT22;3399;52.530;13.304;2023-08-30T04:08:08;14.10;99.90
6724;DHT22;3399;52.530;13.304;2023-08-30T04:10:43;14.20;99.90
6724;DHT22;3399;52.530;13.304;2023-08-30T04:13:12;14.30;99.90
6724;DHT22;3399;52.530;13.304;2023-08-30T04:15:39;14.40;99.90
6724;DHT22;3399;52.530;13.304;2023-08-30T04:18:05;14.40;99.90
6724;DHT22;3399;52.530;13.304;2023-08-30T04:20:32;14.40;99.90
6724;DHT22;3399;52.530;13.304;2023-08-30T04:22:58;14.50;99.90
6724;DHT22;3399;52.530;13.304;2023-08-30T04:25:27;14.30;99.90
6724;DHT22;3399;52.530;13.304;2023-08-30T04:27:52;14.30;99.90
6724;DHT22;3399;52.530;13.304;2023-08-30T04:30:18;14.30;99.90
6724;DHT22;3399;52.530;13.304;2023-08-30T04:32:43;14.40;99.90
6724;DHT22;3399;52.530;13.304;2023-08-30T04:35:09;14.50;99.90
6724;DHT22;3399;52.530;13.304;2023-08-30T04:37:35;14.70;99.90
6724;DHT22;3399;52.530;13.304;2023-08-30T04:40:00;14.70;99.90
6724;DHT22;3399;52.530;13.304;2023-08-30T04:42:26;14.70;99.90
6724;DHT22;3399;52.530;13.304;2023-08-30T04:44:51;14.70;99.90
6724;DHT22;3399;52.530;13.304;2023-08-30T04:47:20;14.80;99.90
6724;DHT22;3399;52.530;13.304;2023-08-30T04:49:50;14.80;99.90
6724;DHT22;3399;52.530;13.304;2023-08-30T04:52:16;14.70;99.90
6724;DHT22;3399;52.530;13.304;2023-08-30T04:54:41;14.80;99.90
6724;DHT22;3399;52.530;13.304;2023-08-30T04:57:08;14.70;99.90
6724;DHT22;3399;52.530;13.304;2023-08-30T04:59:33;14.70;99.90
6724;DHT22;3399;52.530;13.304;2023-08-30T05:01:59;14.60;99.90
6724;DHT22;3399;52.530;13.304;2023-08-30T05:04:25;14.80;99.90
6724;DHT22;3399;52.530;13.304;2023-08-30T05:06:50;14.90;99.90
6724;DHT22;3399;52.530;13.304;2023-08-30T05:09:16;15.00;99.90
6724;DHT22;3399;52.530;13.304;2023-08-30T05:11:41;15.20;99.90
6724;DHT22;3399;52.530;13.304;2023-08-30T05:14:07;15.30;99.90
6724;DHT22;3399;52.530;13.304;2023-08-30T05:16:35;15.30;99.90
6724;DHT22;3399;52.530;13.304;2023-08-30T05:19:00;15.30;99.90
6724;DHT22;3399;52.530;13.304;2023-08-30T05:21:26;15.30;99.90
6724;DHT22;3399;52.530;13.304;2023-08-30T05:23:51;15.40;99.90
6724;DHT22;3399;52.530;13.304;2023-08-30T05:26:17;15.50;99.90
6724;DHT22;3399;52.530;13.304;2023-08-30T05:28:44;15.50;99.90
6724;DHT22;3399;52.530;13.304;2023-08-30T05:31:10;15.70;99.90
6724;DHT22;3399;52.530;13.304;2023-08-30T05:33:35;15.80;99.90
6724;DHT22;3399;52.530;13.304;2023-08-30T05:36:01;15.80;99.90
6724;DHT22;3399;52.530;13.304;2023-08-30T05:38:27;15.80;99.90
6724;DHT22;3399;52.530;13.304;2023-08-30T05:40:53;15.70;99.90
6724;DHT22;3399;52.530;13.304;2023-08-30T05:43:18;15.60;99.90
6724;DHT22;3399;52.530;13.304;2023-08-30T05:45:44;15.50;99.90
6724;DHT22;3399;52.530;13.304;2023-08-30T05:48:09;15.70;99.90
6724;DHT22;3399;52.530;13.304;2023-08-30T05:50:35;15.90;99.90
6724;DHT22;3399;52.530;13.304;2023-08-30T05:53:01;15.70;99.90
6724;DHT22;3399;52.530;13.304;2023-08-30T05:55:26;15.80;99.90
6724;DHT22;3399;52.530;13.304;2023-08-30T05:57:52;15.70;99.90
6724;DHT22;3399;52.530;13.304;2023-08-30T06:00:17;15.90;99.90
6724;DHT22;3399;52.530;13.304;2023-08-30T06:02:43;16.00;99.90
6724;DHT22;3399;52.530;13.304;2023-08-30T06:05:09;16.10;99.90
6724;DHT22;3399;52.530;13.304;2023-08-30T06:07:34;16.00;99.90
6724;DHT22;3399;52.530;13.304;2023-08-30T06:10:00;16.10;99.90
6724;DHT22;3399;52.530;13.304;2023-08-30T06:12:25;16.20;99.90
6724;DHT22;3399;52.530;13.304;2023-08-30T06:14:52;16.20;99.90
6724;DHT22;3399;52.530;13.304;2023-08-30T06:17:21;16.30;99.90
6724;DHT22;3399;52.530;13.304;2023-08-30T06:19:47;16.30;99.90
6724;DHT22;3399;52.530;13.304;2023-08-30T06:22:13;16.40;99.90
6724;DHT22;3399;52.530;13.304;2023-08-30T06:24:39;16.40;99.90
6724;DHT22;3399;52.530;13.304;2023-08-30T06:27:05;16.10;99.90
6724;DHT22;3399;52.530;13.304;2023-08-30T06:29:30;16.40;99.90
6724;DHT22;3399;52.530;13.304;2023-08-30T06:31:56;16.40;99.90
6724;DHT22;3399;52.530;13.304;2023-08-30T06:34:21;16.40;99.90
6724;DHT22;3399;52.530;13.304;2023-08-30T06:36:47;16.30;99.90
6724;DHT22;3399;52.530;13.304;2023-08-30T06:39:13;16.30;99.90
6724;DHT22;3399;52.530;13.304;2023-08-30T06:41:38;16.30;99.90
6724;DHT22;3399;52.530;13.304;2023-08-30T06:44:04;16.50;99.90
6724;DHT22;3399;52.530;13.304;2023-08-30T06:46:29;16.60;99.90
6724;DHT22;3399;52.530;13.304;2023-08-30T06:48:55;16.60;99.90
6724;DHT22;3399;52.530;13.304;2023-08-30T06:51:20;16.60;99.90
6724;DHT22;3399;52.530;13.304;2023-08-30T06:53:46;16.60;99.90
6724;DHT22;3399;52.530;13.304;2023-08-30T06:56:12;16.60;99.90
6724;DHT22;3399;52.530;13.304;2023-08-30T06:58:38;16.60;99.90
6724;DHT22;3399;52.530;13.304;2023-08-30T07:01:03;16.70;99.90
6724;DHT22;3399;52.530;13.304;2023-08-30T07:03:29;16.60;99.90
6724;DHT22;3399;52.530;13.304;2023-08-30T07:05:55;16.60;99.90
6724;DHT22;3399;52.530;13.304;2023-08-30T07:08:20;16.50;99.90
6724;DHT22;3399;52.530;13.304;2023-08-30T07:10:46;16.60;99.90
6724;DHT22;3399;52.530;13.304;2023-08-30T07:13:12;16.40;99.90
6724;DHT22;3399;52.530;13.304;2023-08-30T07:15:41;16.60;99.90
6724;DHT22;3399;52.530;13.304;2023-08-30T07:18:08;16.80;99.90
6724;DHT22;3399;52.530;13.304;2023-08-30T07:20:34;16.90;99.90
6724;DHT22;3399;52.530;13.304;2023-08-30T07:23:01;16.90;99.90
6724;DHT22;3399;52.530;13.304;2023-08-30T07:25:26;17.00;99.90
6724;DHT22;3399;52.530;13.304;2023-08-30T07:27:52;17.00;99.90
6724;DHT22;3399;52.530;13.304;2023-08-30T07:30:17;16.80;99.90
6724;DHT22;3399;52.530;13.304;2023-08-30T07:32:43;16.80;99.90
6724;DHT22;3399;52.530;13.304;2023-08-30T07:35:08;16.90;99.90
6724;DHT22;3399;52.530;13.304;2023-08-30T07:37:34;17.00;99.90
6724;DHT22;3399;52.530;13.304;2023-08-30T07:40:00;17.10;99.90
6724;DHT22;3399;52.530;13.304;2023-08-30T07:42:26;17.10;99.90
6724;DHT22;3399;52.530;13.304;2023-08-30T07:44:51;16.90;99.90
6724;DHT22;3399;52.530;13.304;2023-08-30T07:47:17;16.80;99.90
6724;DHT22;3399;52.530;13.304;2023-08-30T07:49:42;16.80;99.90
6724;DHT22;3399;52.530;13.304;2023-08-30T07:52:08;16.90;99.90
6724;DHT22;3399;52.530;13.304;2023-08-30T07:54:36;16.90;99.90
6724;DHT22;3399;52.530;13.304;2023-08-30T07:57:02;16.70;99.90
6724;DHT22;3399;52.530;13.304;2023-08-30T07:59:29;16.50;99.90
6724;DHT22;3399;52.530;13.304;2023-08-30T08:01:55;16.50;99.90
6724;DHT22;3399;52.530;13.304;2023-08-30T08:04:21;16.60;99.90
6724;DHT22;3399;52.530;13.304;2023-08-30T08:06:47;16.70;99.90
6724;DHT22;3399;52.530;13.304;2023-08-30T08:09:12;16.80;99.90
6724;DHT22;3399;52.530;13.304;2023-08-30T08:11:38;16.80;99.90
6724;DHT22;3399;52.530;13.304;2023-08-30T08:14:09;16.80;99.90
6724;DHT22;3399;52.530;13.304;2023-08-30T08:16:34;16.90;99.90
6724;DHT22;3399;52.530;13.304;2023-08-30T08:19:00;16.90;99.90
6724;DHT22;3399;52.530;13.304;2023-08-30T08:21:26;17.00;99.90
6724;DHT22;3399;52.530;13.304;2023-08-30T08:23:52;17.00;99.90
6724;DHT22;3399;52.530;13.304;2023-08-30T08:26:18;17.10;99.90
6724;DHT22;3399;52.530;13.304;2023-08-30T08:28:44;17.10;99.90
6724;DHT22;3399;52.530;13.304;2023-08-30T08:31:09;17.20;99.90
6724;DHT22;3399;52.530;13.304;2023-08-30T08:33:35;17.20;99.90
6724;DHT22;3399;52.530;13.304;2023-08-30T08:36:01;17.30;99.90
6724;DHT22;3399;52.530;13.304;2023-08-30T08:38:26;17.10;99.90
6724;DHT22;3399;52.530;13.304;2023-08-30T08:41:02;17.10;99.90
6724;DHT22;3399;52.530;13.304;2023-08-30T08:43:29;17.20;99.90
6724;DHT22;3399;52.530;13.304;2023-08-30T08:45:58;17.00;99.90
6724;DHT22;3399;52.530;13.304;2023-08-30T08:48:25;17.20;99.90
6724;DHT22;3399;52.530;13.304;2023-08-30T08:50:53;17.40;99.90
6724;DHT22;3399;52.530;13.304;2023-08-30T08:53:19;17.50;99.90
6724;DHT22;3399;52.530;13.304;2023-08-30T08:55:46;17.40;99.90
6724;DHT22;3399;52.530;13.304;2023-08-30T08:58:13;17.50;99.90
6724;DHT22;3399;52.530;13.304;2023-08-30T09:00:43;17.40;99.90
6724;DHT22;3399;52.530;13.304;2023-08-30T09:03:10;17.50;99.90
6724;DHT22;3399;52.530;13.304;2023-08-30T09:05:38;17.60;99.90
6724;DHT22;3399;52.530;13.304;2023-08-30T09:08:05;17.80;99.90
6724;DHT22;3399;52.530;13.304;2023-08-30T09:10:34;17.90;99.90
6724;DHT22;3399;52.530;13.304;2023-08-30T09:13:00;18.10;99.90
6724;DHT22;3399;52.530;13.304;2023-08-30T09:15:35;18.20;99.90
6724;DHT22;3399;52.530;13.304;2023-08-30T09:18:04;18.00;99.90
6724;DHT22;3399;52.530;13.304;2023-08-30T09:20:29;17.90;99.90
6724;DHT22;3399;52.530;13.304;2023-08-30T09:22:56;17.60;99.90
6724;DHT22;3399;52.530;13.304;2023-08-30T09:25:26;17.20;99.90
6724;DHT22;3399;52.530;13.304;2023-08-30T09:27:59;17.00;99.90
6724;DHT22;3399;52.530;13.304;2023-08-30T09:30:25;17.10;99.90
6724;DHT22;3399;52.530;13.304;2023-08-30T09:32:51;17.30;99.90
6724;DHT22;3399;52.530;13.304;2023-08-30T09:35:17;17.50;99.90
6724;DHT22;3399;52.530;13.304;2023-08-30T09:37:46;17.50;99.90
6724;DHT22;3399;52.530;13.304;2023-08-30T09:40:11;17.60;99.90
6724;DHT22;3399;52.530;13.304;2023-08-30T09:42:41;17.90;99.90
6724;DHT22;3399;52.530;13.304;2023-08-30T09:45:18;17.90;99.90
6724;DHT22;3399;52.530;13.304;2023-08-30T09:47:49;17.90;99.90
6724;DHT22;3399;52.530;13.304;2023-08-30T09:50:18;18.00;99.90
6724;DHT22;3399;52.530;13.304;2023-08-30T09:52:46;18.20;99.90
6724;DHT22;3399;52.530;13.304;2023-08-30T09:55:11;18.50;99.90
6724;DHT22;3399;52.530;13.304;2023-08-30T09:57:37;18.50;99.90
6724;DHT22;3399;52.530;13.304;2023-08-30T10:00:05;18.40;99.90
6724;DHT22;3399;52.530;13.304;2023-08-30T10:02:31;18.30;99.90
6724;DHT22;3399;52.530;13.304;2023-08-30T10:04:59;18.50;99.90
6724;DHT22;3399;52.530;13.304;2023-08-30T10:07:25;18.60;99.90
6724;DHT22;3399;52.530;13.304;2023-08-30T10:09:51;18.60;99.90
6724;DHT22;3399;52.530;13.304;2023-08-30T10:12:20;18.60;99.90
6724;DHT22;3399;52.530;13.304;2023-08-30T10:14:47;18.70;99.90
6724;DHT22;3399;52.530;13.304;2023-08-30T10:17:14;18.70;99.90
6724;DHT22;3399;52.530;13.304;2023-08-30T10:19:43;18.90;99.90
6724;DHT22;3399;52.530;13.304;2023-08-30T10:22:11;19.00;99.90
6724;DHT22;3399;52.530;13.304;2023-08-30T10:24:48;19.20;99.90
6724;DHT22;3399;52.530;13.304;2023-08-30T10:27:16;19.20;99.90
6724;DHT22;3399;52.530;13.304;2023-08-30T10:29:43;19.00;99.90
6724;DHT22;3399;52.530;13.304;2023-08-30T10:32:10;19.20;99.90
6724;DHT22;3399;52.530;13.304;2023-08-30T10:34:36;19.50;99.90
6724;DHT22;3399;52.530;13.304;2023-08-30T10:37:05;19.40;99.90
6724;DHT22;3399;52.530;13.304;2023-08-30T10:39:39;19.20;99.90
6724;DHT22;3399;52.530;13.304;2023-08-30T10:42:15;19.20;99.90
6724;DHT22;3399;52.530;13.304;2023-08-30T10:45:05;19.40;99.90
6724;DHT22;3399;52.530;13.304;2023-08-30T10:47:34;19.70;99.90
6724;DHT22;3399;52.530;13.304;2023-08-30T10:50:10;19.80;99.90
6724;DHT22;3399;52.530;13.304;2023-08-30T10:52:36;20.10;99.90
6724;DHT22;3399;52.530;13.304;2023-08-30T10:55:14;20.20;99.90
6724;DHT22;3399;52.530;13.304;2023-08-30T10:57:44;20.00;99.90
6724;DHT22;3399;52.530;13.304;2023-08-30T11:02:47;20.50;99.90
6724;DHT22;3399;52.530;13.304;2023-08-30T11:05:16;20.70;99.90
6724;DHT22;3399;52.530;13.304;2023-08-30T11:07:46;20.60;99.90
6724;DHT22;3399;52.530;13.304;2023-08-30T11:10:12;20.50;99.90
6724;DHT22;3399;52.530;13.304;2023-08-30T11:12:40;20.50;99.90
6724;DHT22;3399;52.530;13.304;2023-08-30T11:15:08;20.80;99.90
6724;DHT22;3399;52.530;13.304;2023-08-30T11:17:34;20.70;99.90
6724;DHT22;3399;52.530;13.304;2023-08-30T11:20:14;20.90;99.90
6724;DHT22;3399;52.530;13.304;2023-08-30T11:22:43;20.40;99.90
6724;DHT22;3399;52.530;13.304;2023-08-30T11:25:10;20.30;99.90
6724;DHT22;3399;52.530;13.304;2023-08-30T11:27:37;20.20;99.90
6724;DHT22;3399;52.530;13.304;2023-08-30T11:30:03;20.00;99.90
6724;DHT22;3399;52.530;13.304;2023-08-30T11:32:37;20.10;99.90
6724;DHT22;3399;52.530;13.304;2023-08-30T11:35:04;20.30;99.90
6724;DHT22;3399;52.530;13.304;2023-08-30T11:37:30;20.40;99.90
6724;DHT22;3399;52.530;13.304;2023-08-30T11:39:56;20.10;99.90
6724;DHT22;3399;52.530;13.304;2023-08-30T11:42:22;20.00;99.90
6724;DHT22;3399;52.530;13.304;2023-08-30T11:44:47;20.10;99.90
6724;DHT22;3399;52.530;13.304;2023-08-30T11:47:23;20.20;99.90
6724;DHT22;3399;52.530;13.304;2023-08-30T11:49:50;20.30;99.90
6724;DHT22;3399;52.530;13.304;2023-08-30T11:52:18;20.40;99.90
6724;DHT22;3399;52.530;13.304;2023-08-30T11:54:49;20.60;99.90
6724;DHT22;3399;52.530;13.304;2023-08-30T11:57:15;20.70;99.90
6724;DHT22;3399;52.530;13.304;2023-08-30T11:59:41;20.90;99.90
6724;DHT22;3399;52.530;13.304;2023-08-30T12:02:07;20.90;99.90
6724;DHT22;3399;52.530;13.304;2023-08-30T12:04:40;20.90;99.90
6724;DHT22;3399;52.530;13.304;2023-08-30T12:07:06;21.00;99.90
6724;DHT22;3399;52.530;13.304;2023-08-30T12:09:31;21.10;99.90
6724;DHT22;3399;52.530;13.304;2023-08-30T12:12:10;20.90;99.90
6724;DHT22;3399;52.530;13.304;2023-08-30T12:14:36;20.80;99.90
6724;DHT22;3399;52.530;13.304;2023-08-30T12:17:02;20.90;99.90
6724;DHT22;3399;52.530;13.304;2023-08-30T12:19:29;20.80;99.90
6724;DHT22;3399;52.530;13.304;2023-08-30T12:21:54;20.70;99.90
6724;DHT22;3399;52.530;13.304;2023-08-30T12:24:20;20.80;99.90
6724;DHT22;3399;52.530;13.304;2023-08-30T12:26:45;20.70;99.90
6724;DHT22;3399;52.530;13.304;2023-08-30T12:29:11;20.40;99.90
6724;DHT22;3399;52.530;13.304;2023-08-30T12:31:36;20.50;99.90
6724;DHT22;3399;52.530;13.304;2023-08-30T12:34:03;20.30;99.90
6724;DHT22;3399;52.530;13.304;2023-08-30T12:36:28;20.10;99.90
6724;DHT22;3399;52.530;13.304;2023-08-30T12:38:54;19.80;99.90
6724;DHT22;3399;52.530;13.304;2023-08-30T12:41:20;19.90;99.90
6724;DHT22;3399;52.530;13.304;2023-08-30T12:43:48;19.90;99.90
6724;DHT22;3399;52.530;13.304;2023-08-30T12:46:15;19.90;99.90
6724;DHT22;3399;52.530;13.304;2023-08-30T12:48:40;19.90;99.90
6724;DHT22;3399;52.530;13.304;2023-08-30T12:51:06;19.80;99.90
6724;DHT22;3399;52.530;13.304;2023-08-30T12:53:32;19.90;99.90
6724;DHT22;3399;52.530;13.304;2023-08-30T12:55:57;20.10;99.90
6724;DHT22;3399;52.530;13.304;2023-08-30T12:58:23;20.30;99.90
6724;DHT22;3399;52.530;13.304;2023-08-30T13:00:49;20.30;99.90
6724;DHT22;3399;52.530;13.304;2023-08-30T13:03:15;20.40;99.90
6724;DHT22;3399;52.530;13.304;2023-08-30T13:05:41;20.20;99.90
6724;DHT22;3399;52.530;13.304;2023-08-30T13:08:06;19.90;99.90
6724;DHT22;3399;52.530;13.304;2023-08-30T13:10:32;19.80;99.90
6724;DHT22;3399;52.530;13.304;2023-08-30T13:12:58;19.90;99.90
6724;DHT22;3399;52.530;13.304;2023-08-30T13:15:23;19.90;99.90
6724;DHT22;3399;52.530;13.304;2023-08-30T13:17:49;20.00;99.90
6724;DHT22;3399;52.530;13.304;2023-08-30T13:20:15;20.20;99.90
6724;DHT22;3399;52.530;13.304;2023-08-30T13:22:40;20.30;99.90
6724;DHT22;3399;52.530;13.304;2023-08-30T13:25:06;20.50;99.90
6724;DHT22;3399;52.530;13.304;2023-08-30T13:27:33;20.60;99.90
6724;DHT22;3399;52.530;13.304;2023-08-30T13:29:58;20.70;99.90
6724;DHT22;3399;52.530;13.304;2023-08-30T13:32:24;20.70;99.90
6724;DHT22;3399;52.530;13.304;2023-08-30T13:34:50;20.90;99.90
6724;DHT22;3399;52.530;13.304;2023-08-30T13:37:16;20.90;99.90
6724;DHT22;3399;52.530;13.304;2023-08-30T13:39:42;21.10;99.90
6724;DHT22;3399;52.530;13.304;2023-08-30T13:42:08;21.60;99.90
6724;DHT22;3399;52.530;13.304;2023-08-30T13:44:33;22.30;99.90
6724;DHT22;3399;52.530;13.304;2023-08-30T13:47:05;22.90;99.90
6724;DHT22;3399;52.530;13.304;2023-08-30T13:49:31;23.00;99.90
6724;DHT22;3399;52.530;13.304;2023-08-30T13:51:57;23.30;99.90
6724;DHT22;3399;52.530;13.304;2023-08-30T13:54:23;23.60;99.90
6724;DHT22;3399;52.530;13.304;2023-08-30T13:56:48;23.20;99.90
6724;DHT22;3399;52.530;13.304;2023-08-30T13:59:14;23.30;99.90
6724;DHT22;3399;52.530;13.304;2023-08-30T14:01:40;23.50;99.90
6724;DHT22;3399;52.530;13.304;2023-08-30T14:04:06;23.50;99.90
6724;DHT22;3399;52.530;13.304;2023-08-30T14:06:32;24.00;99.70
6724;DHT22;3399;52.530;13.304;2023-08-30T14:08:57;24.20;99.70
6724;DHT22;3399;52.530;13.304;2023-08-30T14:11:23;24.40;98.40
6724;DHT22;3399;52.530;13.304;2023-08-30T14:13:48;24.90;96.80
6724;DHT22;3399;52.530;13.304;2023-08-30T14:16:14;24.40;95.70
6724;DHT22;3399;52.530;13.304;2023-08-30T14:18:39;24.20;96.60
6724;DHT22;3399;52.530;13.304;2023-08-30T14:21:05;25.00;96.30
6724;DHT22;3399;52.530;13.304;2023-08-30T14:23:31;25.40;96.40
6724;DHT22;3399;52.530;13.304;2023-08-30T14:26:00;25.80;94.50
6724;DHT22;3399;52.530;13.304;2023-08-30T14:28:26;25.50;92.70
6724;DHT22;3399;52.530;13.304;2023-08-30T14:30:53;25.70;90.60
6724;DHT22;3399;52.530;13.304;2023-08-30T14:33:19;25.50;92.00
6724;DHT22;3399;52.530;13.304;2023-08-30T14:35:45;25.60;92.20
6724;DHT22;3399;52.530;13.304;2023-08-30T14:38:10;25.60;91.30
6724;DHT22;3399;52.530;13.304;2023-08-30T14:40:36;25.80;91.10
6724;DHT22;3399;52.530;13.304;2023-08-30T14:43:04;25.80;91.60
6724;DHT22;3399;52.530;13.304;2023-08-30T14:45:31;25.90;91.30
6724;DHT22;3399;52.530;13.304;2023-08-30T14:47:56;25.90;89.00
6724;DHT22;3399;52.530;13.304;2023-08-30T14:50:22;25.60;90.00
6724;DHT22;3399;52.530;13.304;2023-08-30T14:52:47;25.40;90.80
6724;DHT22;3399;52.530;13.304;2023-08-30T14:55:13;25.30;91.10
6724;DHT22;3399;52.530;13.304;2023-08-30T14:57:38;25.70;90.60
6724;DHT22;3399;52.530;13.304;2023-08-30T15:00:05;26.10;86.90
6724;DHT22;3399;52.530;13.304;2023-08-30T15:02:31;26.10;88.40
6724;DHT22;3399;52.530;13.304;2023-08-30T15:04:57;25.80;86.40
6724;DHT22;3399;52.530;13.304;2023-08-30T15:07:22;25.90;88.40
6724;DHT22;3399;52.530;13.304;2023-08-30T15:09:48;25.90;88.80
6724;DHT22;3399;52.530;13.304;2023-08-30T15:12:15;25.70;86.20
6724;DHT22;3399;52.530;13.304;2023-08-30T15:14:41;25.40;87.60
6724;DHT22;3399;52.530;13.304;2023-08-30T15:17:10;25.00;90.20
6724;DHT22;3399;52.530;13.304;2023-08-30T15:19:36;24.80;89.40
6724;DHT22;3399;52.530;13.304;2023-08-30T15:22:02;24.40;88.20
6724;DHT22;3399;52.530;13.304;2023-08-30T15:24:28;24.20;90.10
6724;DHT22;3399;52.530;13.304;2023-08-30T15:26:54;24.10;88.90
6724;DHT22;3399;52.530;13.304;2023-08-30T15:29:19;24.00;90.10
6724;DHT22;3399;52.530;13.304;2023-08-30T15:31:45;24.00;91.20
6724;DHT22;3399;52.530;13.304;2023-08-30T15:34:17;24.00;92.30
6724;DHT22;3399;52.530;13.304;2023-08-30T15:36:43;24.00;90.70
6724;DHT22;3399;52.530;13.304;2023-08-30T15:39:08;23.90;91.20
6724;DHT22;3399;52.530;13.304;2023-08-30T15:41:34;23.70;91.50
6724;DHT22;3399;52.530;13.304;2023-08-30T15:44:00;23.60;91.20
6724;DHT22;3399;52.530;13.304;2023-08-30T15:46:25;23.50;91.90
6724;DHT22;3399;52.530;13.304;2023-08-30T15:48:51;23.50;89.70
6724;DHT22;3399;52.530;13.304;2023-08-30T15:51:18;23.40;91.20